Wednesday, January 28, 2015
04:13 UTC
  |  Log In   |  Register Free
Airport Search:

Visalia Municipal Airport
(KVIS)

Visalia Municipal Airport Diagram
No Airport Diagram Available

FAA data valid effective January 08, 2015 - March 05, 2015 (unless otherwise noted).

 
 
 
 
 
 
 
 
 
 
 
 
 
 

Current Aviation Weather for Visalia Municipal Airport (KVIS)

The most recent METAR observation for KVIS was updated at: 0319
METAR Summary (Translated METAR)
KVIS
280315Z AUTO 00000KT 10SM CLR 12/08 A3022 RMK AO1
KHJO
280353Z AUTO 35003KT 8SM CLR 12/10 A3022 RMK AO2 SLP236 T01220100
(11.4 nm SW from KVIS)
KPTV
280355Z AUTO 00000KT 8SM CLR 10/08 A3022 RMK AO1
(23.6 nm SE from KVIS)
TAF Summary (Translated TAF)
KVIS
271720Z 2718/2818 09004KT P6SM VCSH OVC070 FM280000 32006KT P6SM SCT035 BKN060 TEMPO 2802/2806 BKN035 FM280600 32003KT 4SM BR BKN035 TEMPO 2812/2816 2SM BR BKN015
  Airport Weather Conditions for KVIS

 Current Weather at VIS
55° F
Fair
Northwest winds at 3.5 mph
VIS NOAA Radar

Pressure: 30.22 in
Humidity: 72%
Wind: Northwest at 3.5 MPH (3 KT)
Dew Point: 46.4°F
Visibility: 10.00 mi


Airport Weather Forecast for KVIS

Translated METAR and TAF for KVIS
Translated METAR for KVIS (0414 UTC 28 January 2015)
found at http://aviationweather.gov/adds/metars/
 
METAR text: KVIS 280355Z AUTO 35004KT 10SM CLR 11/07 A3022 RMK AO1
Conditions at: KVIS (VISALIA MUNI , CA, US) observed 0355 UTC 28 January 2015
Temperature: 11.0°C (52°F)
Dewpoint: 7.0°C (45°F) [RH = 76%]
Pressure (altimeter): 30.22 inches Hg (1023.5 mb)
Winds: from the N (350 degrees) at 5 MPH (4 knots; 2.1 m/s)
Visibility: 10 or more miles (16+ km)
Ceiling: at least 12,000 feet AGL
Clouds: sky clear below 12,000 feet AGL
Weather: automated observation with no human augmentation;
there may or may not be significant weather present at this time
Translated TAF for KVIS
Forecast for: KVIS (VISALIA MUNI , CA, US)
TAF Text: KVIS 272332Z 2800/2824 32006KT P6SM SCT035 BKN060
Forecast period: 0000 to 0600 UTC 28 January 2015
Forecast type: FROM: standard forecast or significant change
Winds: from the NW (320 degrees) at 7 MPH (6 knots; 3.1 m/s)
Visibility: 6 or more miles (10+ km)
Ceiling: 6000 feet AGL
Clouds: scattered clouds at 3500 feet AGL
broken clouds at 6000 feet AGL
Weather: no significant weather forecast for this period
TAF Text: TEMPO 2800/2804 BKN035
Forecast period: 0000 to 0400 UTC 28 January 2015
Forecast type: TEMPORARY: The following changes expected for less than half the time period
Ceiling: 3500 feet AGL
Clouds: broken clouds at 3500 feet AGL
Weather: no significant weather forecast for this period
TAF Text: FM280600 32003KT 4SM BR SCT015 BKN035
Forecast period: 0600 to 1000 UTC 28 January 2015
Forecast type: FROM: standard forecast or significant change
Winds: from the NW (320 degrees) at 3 MPH (3 knots; 1.6 m/s)
Visibility: 4 miles (6 km)
Ceiling: 3500 feet AGL
Clouds: scattered clouds at 1500 feet AGL
broken clouds at 3500 feet AGL
Weather: BR  (mist)
TAF Text: FM281000 VRB03KT 1 1/2SM BR BKN003
Forecast period: 1000 to 1900 UTC 28 January 2015
Forecast type: FROM: standard forecast or significant change
Winds: variable direction winds at 3 MPH (3 knots; 1.6 m/s)
Visibility: 1.50 miles (2.41 km)
Ceiling: 300 feet AGL
Clouds: broken clouds at 300 feet AGL
Weather: BR  (mist)
TAF Text: TEMPO 2813/2817 1/2SM FG BKN002
Forecast period: 1300 to 1700 UTC 28 January 2015
Forecast type: TEMPORARY: The following changes expected for less than half the time period
Visibility: 0.50 miles (0.80 km)
Ceiling: 200 feet AGL
Clouds: broken clouds at 200 feet AGL
Weather: FG  (fog)
TAF Text: FM281900 VRB04KT 5SM HZ BKN200
Forecast period: 1900 UTC 28 January 2015 to 0000 UTC 29 January 2015
Forecast type: FROM: standard forecast or significant change
Winds: variable direction winds at 5 MPH (4 knots; 2.1 m/s)
Visibility: 5 miles (8 km)
Ceiling: 20000 feet AGL
Clouds: broken clouds at 20000 feet AGL
Weather: HZ  (haze)

Find All Airport Services Find A Hotel Find A Rental Car Find A Golf Course Find A Restaurant $100 Hamburger



FBO's on the Field
FBO Company Facility Photos Services Transportation Aviation Fuel Prices: Prices include tax
Catering Weather Repair Courtesy Rental Type 100LL JetA JetA+ MOGAS 8087
 
Add another FBO Facility Photos Catering Weather Repair Courtesy Rental Type 100LL JetA JetA+ MOGAS 8087
Services Transportation Aviation Fuel Prices: Prices include tax
There are no FBO's currently reporting fuel at VIS. List your FBO now


model-print
model-print
model-print
model-print